Airfield :
LOGIN :

Register | Disclaimer

   EN    FR    IT 

 










Legend :    VFR   Marginal VFR   IFR   Intensive IFR   Very Intensive IFR
Visi :
Ceiling :
>= 8 km
>= 3000ft
5 to 8 km
1000 to 3000 ft
1500m to 5 km
500 to 1000 ft
800 to 1500m
200 to 500 ft
< 800m
< 200 ft
Symbols :   Thunderstorms  Fog  Heavy snow  Heavy precipitations  Wind > 20 kt
SIGMETs :     Misc.  Thunderstorms  Icing  Turbulence  Mountain Waves  Volcanic Ashes






- Airport Elevation : 231 ft
- IATA code : WTN


EGXW - RAF Waddington

CURRENT METAR :
  • 161150Z 22011KT CAVOK 06/03 Q0998 NOSIG RMK BLU BLU

EXPIRED METARs :
  • 161120Z 23009KT CAVOK 05/03 Q0999 NOSIG RMK BLU BLU
  • 161050Z 23010KT CAVOK 05/03 Q0999 NOSIG RMK BLU BLU
  • 161020Z 23010KT CAVOK 05/02 Q0999 NOSIG RMK BLU BLU
  • 160950Z 22013KT CAVOK 05/03 Q0998 NOSIG RMK BLU BLU
  • 160921Z 22014KT CAVOK 05/02 Q0998 NOSIG RMK BLU BLU

TAF TAF EGXW
Valid from the 16 at 12:00 until the 17 at 06:00 UTC


161046Z 1612/1706 22010KT CAVOK
PROB40 1620/1706 4000 BR
PROB30 1702/1706 0300 FG VV///



MET'MAP, your aeronautical weather chart ! - Copyright ORBIFLY December 2007 - Disclaimer

ORBIFLY MET'MAP TEAM :

Programming & Development : Alexandra Zaïnal
Concept & original design : Baudouin d'Aumeries
Assistance for programming : Marc-Olivier Méhu
Technical & hardware support : Manuel Goepfert

Contact : metmap@orbifly.com




SOURCES & CREDITS :

   NOAA